createdAt,value
2023-03-29T00:00:34.383Z,69.17
2023-03-29T00:03:04.347Z,70.09
2023-03-29T00:05:36.212Z,71.38
2023-03-29T00:08:04.843Z,71.39
2023-03-29T00:10:33.825Z,70.65
2023-03-29T00:13:03.138Z,71.61
2023-03-29T00:15:31.405Z,71.02
2023-03-29T00:17:59.435Z,70.48
2023-03-29T00:20:28.960Z,71.63
2023-03-29T00:22:57.606Z,70.97
2023-03-29T00:25:25.696Z,70.86
2023-03-29T00:27:53.579Z,71.21
2023-03-29T00:30:21.967Z,72.24
2023-03-29T00:32:49.959Z,75.79
2023-03-29T00:35:18.121Z,76.06
2023-03-29T00:37:47.335Z,76.69
2023-03-29T00:40:15.661Z,78.29
2023-03-29T00:42:47.121Z,77.99
2023-03-29T00:45:25.640Z,78.27
2023-03-29T00:48:00.224Z,78.85
2023-03-29T00:50:34.534Z,79.38
2023-03-29T00:53:07.598Z,79.29
2023-03-29T00:55:43.046Z,79.32
2023-03-29T00:58:14.486Z,79.62
2023-03-29T01:00:52.364Z,79.66
2023-03-29T01:03:27.633Z,80.04
2023-03-29T01:06:05.463Z,79.92
2023-03-29T01:08:47.592Z,79.98
2023-03-29T01:11:24.948Z,80.01
2023-03-29T01:14:05.903Z,80.12
2023-03-29T01:16:38.488Z,80.40
2023-03-29T01:19:11.241Z,81.01
2023-03-29T01:21:52.117Z,81.13
2023-03-29T01:24:42.085Z,81.33
2023-03-29T01:27:19.240Z,81.83
2023-03-29T01:29:57.404Z,82.46
2023-03-29T01:32:35.449Z,82.77
2023-03-29T01:35:03.341Z,82.84
2023-03-29T01:37:43.853Z,83.03
2023-03-29T01:40:12.381Z,83.29
2023-03-29T01:43:09.716Z,83.45
2023-03-29T01:45:50.743Z,84.19
2023-03-29T01:48:40.875Z,83.57
2023-03-29T01:51:14.799Z,82.93
2023-03-29T01:53:57.101Z,82.77
2023-03-29T01:56:28.350Z,82.66
2023-03-29T01:59:01.915Z,82.38
2023-03-29T02:01:38.453Z,82.20
2023-03-29T02:04:13.383Z,82.34
2023-03-29T02:06:42.982Z,83.21
2023-03-29T02:09:12.808Z,83.80
2023-03-29T02:11:42.686Z,84.90
2023-03-29T02:14:10.890Z,84.99
2023-03-29T02:16:39.833Z,85.35
2023-03-29T02:19:09.970Z,85.17
2023-03-29T02:22:02.062Z,85.16
2023-03-29T02:24:32.890Z,85.13
2023-03-29T02:27:01.419Z,85.14
2023-03-29T02:29:29.610Z,85.09
2023-03-29T02:32:02.184Z,84.96
2023-03-29T02:34:39.073Z,84.99
2023-03-29T02:37:13.112Z,84.83
2023-03-29T02:39:42.189Z,85.72
2023-03-29T02:42:11.142Z,84.98
2023-03-29T02:44:42.049Z,84.85
2023-03-29T02:47:21.035Z,84.63
2023-03-29T02:49:49.072Z,84.48
2023-03-29T02:52:22.900Z,84.20
2023-03-29T02:54:54.508Z,83.96
2023-03-29T02:57:26.789Z,84.31
2023-03-29T02:59:57.135Z,83.50
2023-03-29T03:02:28.379Z,83.59
2023-03-29T03:04:56.690Z,83.39
2023-03-29T03:07:25.077Z,83.64
2023-03-29T03:09:53.403Z,85.11
2023-03-29T03:12:21.659Z,85.04
2023-03-29T03:14:49.978Z,86.00
2023-03-29T03:17:19.002Z,85.33
2023-03-29T03:19:47.496Z,86.05
2023-03-29T03:22:15.685Z,85.68
2023-03-29T03:24:44.011Z,87.63
2023-03-29T03:27:12.574Z,86.34
2023-03-29T03:29:41.663Z,86.92
2023-03-29T03:32:12.499Z,85.93
2023-03-29T03:34:42.701Z,85.47
2023-03-29T03:37:12.256Z,84.97
2023-03-29T03:39:40.332Z,84.29
2023-03-29T03:42:08.666Z,84.09
2023-03-29T03:44:39.670Z,83.43
2023-03-29T03:47:08.004Z,83.14
2023-03-29T03:49:36.853Z,81.17
2023-03-29T03:52:05.367Z,81.77
2023-03-29T03:54:34.728Z,81.94
2023-03-29T03:57:05.020Z,80.39
2023-03-29T03:59:34.210Z,81.32
2023-03-29T04:02:02.243Z,82.86
2023-03-29T04:04:31.094Z,86.16
2023-03-29T04:07:02.932Z,85.34
2023-03-29T04:09:33.519Z,84.80
2023-03-29T04:12:03.491Z,85.02
2023-03-29T04:14:32.334Z,84.74
2023-03-29T04:17:01.513Z,84.86
2023-03-29T04:19:31.544Z,84.87
2023-03-29T04:21:59.749Z,85.60
2023-03-29T04:24:27.753Z,85.74
2023-03-29T04:26:59.215Z,86.50
2023-03-29T04:29:27.495Z,88.07
2023-03-29T04:31:56.612Z,88.65
2023-03-29T04:34:25.374Z,89.01
2023-03-29T04:36:54.247Z,88.71
2023-03-29T04:39:23.159Z,89.08
2023-03-29T04:41:51.358Z,90.41
2023-03-29T04:44:20.075Z,90.79
2023-03-29T04:46:48.179Z,90.86
2023-03-29T04:49:17.222Z,90.24
2023-03-29T04:51:46.596Z,89.52
2023-03-29T04:54:16.114Z,88.68
2023-03-29T04:56:44.893Z,88.17
2023-03-29T04:59:14.212Z,88.83
2023-03-29T05:01:43.562Z,88.29
2023-03-29T05:04:12.905Z,88.17
2023-03-29T05:06:42.122Z,88.07
2023-03-29T05:09:10.729Z,89.88
2023-03-29T05:11:39.110Z,89.85
2023-03-29T05:14:09.377Z,90.49
2023-03-29T05:16:38.315Z,91.39
2023-03-29T05:19:06.740Z,90.22
2023-03-29T05:21:37.164Z,89.94
2023-03-29T05:24:07.055Z,89.31
2023-03-29T05:26:38.730Z,89.72
2023-03-29T05:29:09.100Z,91.44
2023-03-29T05:31:38.082Z,91.79
2023-03-29T05:34:07.305Z,92.40
2023-03-29T05:36:35.866Z,91.49
2023-03-29T05:39:05.047Z,91.56
2023-03-29T05:41:33.904Z,90.17
2023-03-29T05:44:03.072Z,90.68
2023-03-29T05:46:31.842Z,91.12
2023-03-29T05:49:01.742Z,90.08
2023-03-29T05:51:35.754Z,91.69
2023-03-29T05:54:04.420Z,92.02
2023-03-29T05:56:32.301Z,92.56
2023-03-29T05:59:03.737Z,92.18
2023-03-29T06:01:32.518Z,90.96
2023-03-29T06:04:01.893Z,90.94
2023-03-29T06:06:41.814Z,91.98
2023-03-29T06:09:10.731Z,91.96
2023-03-29T06:11:40.941Z,90.18
2023-03-29T06:14:13.881Z,89.84
2023-03-29T06:16:43.431Z,89.85
2023-03-29T06:19:11.839Z,88.67
2023-03-29T06:21:41.665Z,87.18
2023-03-29T06:24:10.913Z,84.66
2023-03-29T06:26:39.506Z,84.59
2023-03-29T06:29:08.606Z,82.38
2023-03-29T06:31:41.124Z,83.25
2023-03-29T06:34:09.606Z,86.21
2023-03-29T06:36:39.097Z,86.61
2023-03-29T06:39:08.782Z,86.58
2023-03-29T06:41:37.384Z,85.57
2023-03-29T06:44:11.821Z,86.50
2023-03-29T06:46:40.136Z,85.26
2023-03-29T06:49:08.402Z,85.87
2023-03-29T06:51:37.646Z,85.48
2023-03-29T06:54:05.922Z,84.71
2023-03-29T06:56:34.832Z,83.89
2023-03-29T06:59:03.588Z,83.74
2023-03-29T07:01:33.259Z,81.57
2023-03-29T07:04:13.086Z,82.00
2023-03-29T07:06:48.614Z,82.38
2023-03-29T07:09:19.661Z,81.74
2023-03-29T07:11:50.927Z,82.17
2023-03-29T07:14:19.791Z,83.19
2023-03-29T07:16:50.096Z,80.83
2023-03-29T07:19:19.973Z,80.31
2023-03-29T07:21:53.544Z,80.25
2023-03-29T07:24:22.647Z,79.77
2023-03-29T07:27:03.326Z,78.20
2023-03-29T07:29:33.331Z,79.47
2023-03-29T07:32:02.529Z,78.33
2023-03-29T07:34:33.392Z,78.03
2023-03-29T07:37:01.762Z,79.90
2023-03-29T07:39:31.120Z,78.27
2023-03-29T07:42:13.673Z,76.25
2023-03-29T07:44:42.005Z,74.41
2023-03-29T07:47:12.101Z,73.54
2023-03-29T07:49:42.412Z,71.63
2023-03-29T07:52:14.756Z,72.05
2023-03-29T07:54:53.764Z,67.96
2023-03-29T07:57:27.988Z,66.82
2023-03-29T07:59:58.154Z,66.49
2023-03-29T08:02:29.960Z,62.17
2023-03-29T08:05:00.650Z,59.58
2023-03-29T08:07:31.804Z,56.83
2023-03-29T08:10:01.609Z,56.76
2023-03-29T08:12:30.722Z,55.38
2023-03-29T08:14:58.980Z,52.25
2023-03-29T08:17:28.071Z,53.00
2023-03-29T08:19:56.641Z,53.11
2023-03-29T08:22:25.725Z,56.21
2023-03-29T08:24:56.642Z,54.66
2023-03-29T08:27:25.226Z,54.27
2023-03-29T08:29:58.409Z,53.24
2023-03-29T08:32:27.924Z,51.50
2023-03-29T08:34:55.903Z,53.47
2023-03-29T08:37:25.978Z,47.77
2023-03-29T08:39:56.535Z,47.38
2023-03-29T08:42:55.771Z,41.45
2023-03-29T08:45:50.464Z,42.43
2023-03-29T08:48:21.728Z,42.10
2023-03-29T08:50:54.286Z,38.62
2023-03-29T08:53:47.828Z,36.27
2023-03-29T08:56:33.548Z,42.45
2023-03-29T08:59:12.739Z,41.68
2023-03-29T09:01:42.209Z,40.13
2023-03-29T09:04:19.162Z,42.85
2023-03-29T09:06:47.814Z,42.55
2023-03-29T09:09:23.933Z,45.26
2023-03-29T09:11:59.135Z,44.58
2023-03-29T09:14:48.841Z,46.02
2023-03-29T09:17:42.994Z,45.06
2023-03-29T09:20:53.850Z,43.56
2023-03-29T09:23:52.561Z,40.66
2023-03-29T09:26:42.389Z,38.57
2023-03-29T09:29:23.858Z,41.46
2023-03-29T09:31:54.932Z,38.79
2023-03-29T09:34:31.912Z,40.57
2023-03-29T09:37:01.254Z,37.19
2023-03-29T09:39:29.775Z,38.94
2023-03-29T09:42:09.344Z,42.80
2023-03-29T09:44:54.406Z,41.67
2023-03-29T09:47:31.058Z,40.71
2023-03-29T09:50:23.098Z,44.96
2023-03-29T09:52:56.003Z,44.68
2023-03-29T09:55:29.636Z,45.28
2023-03-29T09:58:01.494Z,45.73
2023-03-29T10:00:31.074Z,43.74
2023-03-29T10:03:00.558Z,44.12
2023-03-29T10:05:33.457Z,46.47
2023-03-29T10:08:20.113Z,47.05
2023-03-29T10:10:48.929Z,47.30
2023-03-29T10:13:29.368Z,45.92
2023-03-29T10:16:25.007Z,47.38
2023-03-29T10:18:54.856Z,46.85
2023-03-29T10:21:39.002Z,45.80
2023-03-29T10:24:10.812Z,44.83
2023-03-29T10:26:39.185Z,44.74
2023-03-29T10:29:08.416Z,46.45
2023-03-29T10:31:41.772Z,45.87
2023-03-29T10:34:15.349Z,44.38
2023-03-29T10:36:50.468Z,43.52
2023-03-29T10:39:34.548Z,45.88
2023-03-29T10:42:04.368Z,43.67
2023-03-29T10:44:36.383Z,41.88
2023-03-29T10:47:14.814Z,43.20
2023-03-29T10:49:47.684Z,44.11
2023-03-29T10:52:17.485Z,42.83
2023-03-29T10:54:47.385Z,43.54
2023-03-29T10:57:38.820Z,40.91
2023-03-29T11:00:27.439Z,41.59
2023-03-29T11:03:17.026Z,42.19
2023-03-29T11:05:58.961Z,41.81
2023-03-29T11:08:32.167Z,42.22
2023-03-29T11:11:09.793Z,43.12
2023-03-29T11:14:03.321Z,42.98
2023-03-29T11:17:18.511Z,42.86
2023-03-29T11:19:49.065Z,41.81
2023-03-29T11:22:31.597Z,42.83
2023-03-29T11:25:05.388Z,41.27
2023-03-29T11:27:46.220Z,41.92
2023-03-29T11:30:48.471Z,41.65
2023-03-29T11:33:50.372Z,42.56
2023-03-29T11:36:39.104Z,42.09
2023-03-29T11:39:16.380Z,43.76
2023-03-29T11:41:48.936Z,42.93
2023-03-29T11:44:29.966Z,42.73
2023-03-29T11:47:07.918Z,42.67
2023-03-29T11:49:43.586Z,42.05
2023-03-29T11:52:17.859Z,42.59
2023-03-29T11:54:49.915Z,43.39
2023-03-29T11:57:37.247Z,43.43
2023-03-29T12:00:33.281Z,44.30
2023-03-29T12:03:23.646Z,43.63
2023-03-29T12:06:05.122Z,44.02
2023-03-29T12:08:38.682Z,44.33
2023-03-29T12:11:23.001Z,44.73
2023-03-29T12:14:08.326Z,44.83
2023-03-29T12:16:52.060Z,45.56
2023-03-29T12:19:43.181Z,44.01
2023-03-29T12:22:12.443Z,43.39
2023-03-29T12:24:44.367Z,44.62
2023-03-29T12:27:48.409Z,43.62
2023-03-29T12:30:22.466Z,42.94
2023-03-29T12:33:25.921Z,43.56
2023-03-29T12:36:17.655Z,43.32
2023-03-29T12:38:52.536Z,46.28
2023-03-29T12:41:24.663Z,44.58
2023-03-29T12:43:53.455Z,42.28
2023-03-29T12:46:26.881Z,43.64
2023-03-29T12:48:59.961Z,43.39
2023-03-29T12:51:41.977Z,43.13
2023-03-29T12:54:17.686Z,42.33
2023-03-29T12:56:52.876Z,42.90
2023-03-29T12:59:43.148Z,44.22
2023-03-29T13:02:14.474Z,43.16
2023-03-29T13:04:42.563Z,42.67
2023-03-29T13:07:22.842Z,42.06
2023-03-29T13:10:30.037Z,41.71
2023-03-29T13:13:12.509Z,42.10
2023-03-29T13:15:43.631Z,43.64
2023-03-29T13:18:20.542Z,43.93
2023-03-29T13:21:21.269Z,42.89
2023-03-29T13:24:03.149Z,42.42
2023-03-29T13:26:46.529Z,41.49
2023-03-29T13:29:57.914Z,43.23
2023-03-29T13:32:46.431Z,43.95
2023-03-29T13:35:18.361Z,42.67
2023-03-29T13:38:20.696Z,43.23
2023-03-29T13:40:52.072Z,43.47
2023-03-29T13:43:20.527Z,43.20
2023-03-29T13:45:57.337Z,42.90
2023-03-29T13:48:37.671Z,42.60
2023-03-29T13:51:41.155Z,43.19
2023-03-29T13:54:30.838Z,43.79
2023-03-29T13:57:16.660Z,42.37
2023-03-29T13:59:49.533Z,44.08
2023-03-29T14:02:42.711Z,43.66
2023-03-29T14:05:19.584Z,45.50
2023-03-29T14:07:53.576Z,45.09
2023-03-29T14:10:27.470Z,44.15
2023-03-29T14:12:56.986Z,44.00
2023-03-29T14:15:38.223Z,43.60
2023-03-29T14:18:07.008Z,44.95
2023-03-29T14:20:35.324Z,44.13
2023-03-29T14:23:13.339Z,43.87
2023-03-29T14:25:43.288Z,44.31
2023-03-29T14:28:28.615Z,44.37
2023-03-29T14:30:57.453Z,44.56
2023-03-29T14:33:29.433Z,44.08
2023-03-29T14:36:01.158Z,45.16
2023-03-29T14:38:31.563Z,44.23
2023-03-29T14:41:01.318Z,44.93
2023-03-29T14:43:32.217Z,46.24
2023-03-29T14:46:04.713Z,44.22
2023-03-29T14:48:35.021Z,45.21
2023-03-29T14:51:04.091Z,45.27
2023-03-29T14:53:34.514Z,47.33
2023-03-29T14:56:03.513Z,46.33
2023-03-29T14:58:34.514Z,46.57
2023-03-29T15:01:10.730Z,47.79
2023-03-29T15:03:49.871Z,47.67
2023-03-29T15:06:18.602Z,48.17
2023-03-29T15:08:58.043Z,49.87
2023-03-29T15:11:34.209Z,49.19
2023-03-29T15:14:04.506Z,48.40
2023-03-29T15:16:33.581Z,49.08
2023-03-29T15:19:02.365Z,48.73
2023-03-29T15:21:34.485Z,49.21
2023-03-29T15:24:04.722Z,50.67
2023-03-29T15:26:36.056Z,50.77
2023-03-29T15:29:23.344Z,50.11
2023-03-29T15:31:57.086Z,50.82
2023-03-29T15:34:27.835Z,51.45
2023-03-29T15:36:59.934Z,50.88
2023-03-29T15:39:29.527Z,50.88
2023-03-29T15:41:58.335Z,50.84
2023-03-29T15:44:32.863Z,50.37
2023-03-29T15:47:01.219Z,51.61
2023-03-29T15:49:29.224Z,50.66
2023-03-29T15:51:57.263Z,51.17
2023-03-29T15:54:25.532Z,51.98
2023-03-29T15:56:57.226Z,50.10
2023-03-29T15:59:25.978Z,49.51
2023-03-29T16:01:54.775Z,50.34
2023-03-29T16:04:23.159Z,50.88
2023-03-29T16:06:53.159Z,54.22
2023-03-29T16:09:22.487Z,52.01
2023-03-29T16:11:50.785Z,52.58
2023-03-29T16:14:25.368Z,53.34
2023-03-29T16:16:55.690Z,52.05
2023-03-29T16:19:25.128Z,52.67
2023-03-29T16:21:54.227Z,53.73
2023-03-29T16:24:25.183Z,56.52
2023-03-29T16:26:55.852Z,55.74
2023-03-29T16:29:25.425Z,57.74
2023-03-29T16:31:54.474Z,56.78
2023-03-29T16:34:23.142Z,54.61
2023-03-29T16:36:51.275Z,54.98
2023-03-29T16:39:19.758Z,54.82
2023-03-29T16:41:50.319Z,56.15
2023-03-29T16:44:23.769Z,55.19
2023-03-29T16:46:57.614Z,54.98
2023-03-29T16:49:25.542Z,55.25
2023-03-29T16:51:54.492Z,55.53
2023-03-29T16:54:25.805Z,55.49
2023-03-29T16:56:54.192Z,56.17
2023-03-29T16:59:22.454Z,56.68
2023-03-29T17:01:50.884Z,57.31
2023-03-29T17:04:19.273Z,57.69
2023-03-29T17:06:47.599Z,57.87
2023-03-29T17:09:17.737Z,57.88
2023-03-29T17:11:46.437Z,57.96
2023-03-29T17:14:14.392Z,58.66
2023-03-29T17:16:42.232Z,58.91
2023-03-29T17:19:10.770Z,59.16
2023-03-29T17:21:38.700Z,60.04
2023-03-29T17:24:07.068Z,59.93
2023-03-29T17:26:35.829Z,59.49
2023-03-29T17:29:04.584Z,59.74
2023-03-29T17:31:34.908Z,61.42
2023-03-29T17:34:03.582Z,60.63
2023-03-29T17:36:33.820Z,65.02
2023-03-29T17:39:02.915Z,63.11
2023-03-29T17:41:31.494Z,62.62
2023-03-29T17:43:59.884Z,63.66
2023-03-29T17:46:27.970Z,68.14
2023-03-29T17:48:56.305Z,65.61
2023-03-29T17:51:24.712Z,65.28
2023-03-29T17:53:54.896Z,66.32
2023-03-29T17:56:23.840Z,66.26
2023-03-29T17:58:52.115Z,66.73
2023-03-29T18:01:21.072Z,67.46
2023-03-29T18:03:49.609Z,69.88
2023-03-29T18:06:20.404Z,69.28
2023-03-29T18:08:48.413Z,69.72
2023-03-29T18:11:27.484Z,70.00
2023-03-29T18:13:59.322Z,72.49
2023-03-29T18:16:28.560Z,71.42
2023-03-29T18:18:56.674Z,73.85
2023-03-29T18:21:26.189Z,73.95
2023-03-29T18:23:56.664Z,73.53
2023-03-29T18:26:25.281Z,72.82
2023-03-29T18:28:54.345Z,71.31
2023-03-29T18:31:23.197Z,71.42
2023-03-29T18:33:51.214Z,74.39
2023-03-29T18:36:19.267Z,71.39
2023-03-29T18:38:47.891Z,70.83
2023-03-29T18:41:16.255Z,66.90
2023-03-29T18:43:46.915Z,66.53
2023-03-29T18:46:15.959Z,71.58
2023-03-29T18:48:54.582Z,70.54
2023-03-29T18:52:08.746Z,68.86
2023-03-29T18:55:10.723Z,70.01
2023-03-29T18:57:38.811Z,68.18
2023-03-29T19:00:11.955Z,67.15
2023-03-29T19:02:40.672Z,66.91
2023-03-29T19:05:09.598Z,69.08
2023-03-29T19:07:38.118Z,69.17
2023-03-29T19:10:08.243Z,69.41
2023-03-29T19:12:37.287Z,69.98
2023-03-29T19:15:09.632Z,71.35
2023-03-29T19:17:38.672Z,70.96
2023-03-29T19:20:10.226Z,73.28
2023-03-29T19:22:40.250Z,71.85
2023-03-29T19:25:10.123Z,71.97
2023-03-29T19:27:38.492Z,71.55
2023-03-29T19:30:07.385Z,73.66
2023-03-29T19:32:35.655Z,72.19
2023-03-29T19:35:04.487Z,72.70
2023-03-29T19:37:32.282Z,74.35
2023-03-29T19:40:00.592Z,73.83
2023-03-29T19:42:29.448Z,72.93
2023-03-29T19:44:57.632Z,73.50
2023-03-29T19:47:25.771Z,73.85
2023-03-29T19:49:54.255Z,74.02
2023-03-29T19:52:24.100Z,73.57
2023-03-29T19:54:52.600Z,73.62
2023-03-29T19:57:22.708Z,72.93
2023-03-29T19:59:53.159Z,73.41
2023-03-29T20:02:21.793Z,75.46
2023-03-29T20:04:49.946Z,74.34
2023-03-29T20:07:17.782Z,74.97
2023-03-29T20:09:46.092Z,73.05
2023-03-29T20:12:14.279Z,71.42
2023-03-29T20:14:43.421Z,71.21
2023-03-29T20:17:11.406Z,70.68
2023-03-29T20:19:44.128Z,72.57
2023-03-29T20:22:12.413Z,71.33
2023-03-29T20:24:40.749Z,71.38
2023-03-29T20:27:08.813Z,71.23
2023-03-29T20:29:37.492Z,71.63
2023-03-29T20:32:06.242Z,71.54
2023-03-29T20:34:34.150Z,71.65
2023-03-29T20:37:02.175Z,71.98
2023-03-29T20:39:31.527Z,71.86
2023-03-29T20:42:00.649Z,72.89
2023-03-29T20:44:28.607Z,71.39
2023-03-29T20:47:03.512Z,72.19
2023-03-29T20:49:37.189Z,72.36
2023-03-29T20:52:18.245Z,70.64
2023-03-29T20:54:46.149Z,71.16
2023-03-29T20:57:16.723Z,72.17
2023-03-29T20:59:45.862Z,71.79
2023-03-29T21:02:20.953Z,72.76
2023-03-29T21:04:53.450Z,71.24
2023-03-29T21:07:21.854Z,75.74
2023-03-29T21:09:50.474Z,74.88
2023-03-29T21:12:20.337Z,75.84
2023-03-29T21:14:48.579Z,79.09
2023-03-29T21:17:16.493Z,78.20
2023-03-29T21:19:44.342Z,79.15
2023-03-29T21:22:15.934Z,79.83
2023-03-29T21:24:43.775Z,80.79
2023-03-29T21:27:11.733Z,79.27
2023-03-29T21:29:40.177Z,83.06
2023-03-29T21:32:08.186Z,84.37
2023-03-29T21:34:35.967Z,86.59
2023-03-29T21:37:04.168Z,85.80
2023-03-29T21:39:32.357Z,85.99
2023-03-29T21:42:00.476Z,86.52
2023-03-29T21:44:28.842Z,86.95
2023-03-29T21:46:56.780Z,85.74
2023-03-29T21:49:24.650Z,85.64
2023-03-29T21:51:52.803Z,86.35
2023-03-29T21:54:20.897Z,84.82
2023-03-29T21:56:48.740Z,83.40
2023-03-29T21:59:16.904Z,82.79
2023-03-29T22:01:44.909Z,82.71
2023-03-29T22:04:17.686Z,83.39
2023-03-29T22:06:54.091Z,82.80
2023-03-29T22:09:22.170Z,83.96
2023-03-29T22:11:50.275Z,84.93
2023-03-29T22:14:19.488Z,85.66
2023-03-29T22:16:47.806Z,85.68
2023-03-29T22:19:15.735Z,85.56
2023-03-29T22:21:44.289Z,86.68
2023-03-29T22:24:12.416Z,85.25
2023-03-29T22:26:41.152Z,85.26
2023-03-29T22:29:09.014Z,84.69
2023-03-29T22:31:37.975Z,84.61
2023-03-29T22:34:06.258Z,85.89
2023-03-29T22:36:36.198Z,84.59
2023-03-29T22:39:05.903Z,84.97
2023-03-29T22:41:33.943Z,86.21
2023-03-29T22:44:01.793Z,86.41
2023-03-29T22:46:30.439Z,85.89
2023-03-29T22:48:58.390Z,86.15
2023-03-29T22:51:26.394Z,85.43
2023-03-29T22:53:54.672Z,85.80
2023-03-29T22:56:23.273Z,84.14
2023-03-29T22:58:51.207Z,84.34
2023-03-29T23:01:19.347Z,85.53
2023-03-29T23:03:47.335Z,85.95
2023-03-29T23:06:15.209Z,85.14
2023-03-29T23:08:43.799Z,85.36
2023-03-29T23:11:11.687Z,84.37
2023-03-29T23:13:39.835Z,85.36
2023-03-29T23:16:08.117Z,85.73
2023-03-29T23:18:37.730Z,85.73
2023-03-29T23:21:08.993Z,83.96
2023-03-29T23:23:37.707Z,85.87
2023-03-29T23:26:06.618Z,83.28
2023-03-29T23:28:35.256Z,82.21
2023-03-29T23:31:11.821Z,81.07
2023-03-29T23:33:41.761Z,82.04
2023-03-29T23:36:15.669Z,80.73
2023-03-29T23:38:45.666Z,80.84
2023-03-29T23:41:14.210Z,82.88
2023-03-29T23:43:43.909Z,81.83
2023-03-29T23:46:15.433Z,82.65
2023-03-29T23:48:49.147Z,82.30
2023-03-29T23:51:23.014Z,81.84
2023-03-29T23:53:51.894Z,82.63
2023-03-29T23:56:21.752Z,81.49
2023-03-29T23:58:50.178Z,81.15
